Accueil
METAR-TAF:

METAR-TAF

Aéroports :

Aéroport Agen-La Garenne

Agen, France

latitude: 44-11N, longitude: 000-36E, altitude: 61 m

Observation

Le bulletin a été fait il y a 19 minutes, à 01:30 UTC
Vent 2 kt de ouest/sud-ouest
Température 5°C
Humidité 100%
Pression 1011 hPa
Visibilité: 5000 m
Quelques nuages à une hauteur de 300 ft
Ciel couvert à une hauteur de 4700 ft
brume

METAR: LFBA 030130Z AUTO 25002KT 5000 BR FEW003 OVC047 05/05 Q1011

Heure: 02:49 (01:49 UTC)

Prévision

Le bulletin a été fait il y a 8 heures et 49 minutes, à 17:00 UTC
Prévision valable du 02 à 18 UTC au 03 à 03 UTC
Vent 2 kt de direction variable
Visibilité 10 km ou plus
Ciel couvert à une hauteur de 4500 ft
Probabilité 30% :
Temporairement
du 03 à 00 UTC au 03 à 03 UTC
Visibilité: 4000 m
brume

TAF: LFBA 021700Z 0218/0303 VRB02KT 9999 OVC045 PROB30 TEMPO 0300/0303 4000 BR

Observations et prévisions météorologiques de plus de 4000 aéroports (messages METAR et TAF).

Les stations disponibles sont représentées par des disques jaunes et rouges sur la carte.

Passer la souris dessus pour voir le nom de la station.

Cliquer dessus pour voir les observations et prévisions météorologiques.

Pour changer de carte: cliquez sur les boutons verts avec une croix noire pour zoomer, sur le bouton vert avec un tiret pour effectuer un zoom arrière, ou sur les flèches vertes pour les cartes adjacentes.


METAR-TAF: